sensor_id;sensor_type;location;lat;lon;timestamp;pressure;altitude;pressure_sealevel;temperature;humidity
48968;BME280;46511;53.148;8.204;2024-01-16T00:00:57;100364.22;;;3.05;100.00
48968;BME280;46511;53.148;8.204;2024-01-16T00:03:28;100366.75;;;3.35;100.00
48968;BME280;46511;53.148;8.204;2024-01-16T00:06:00;100374.25;;;3.46;100.00
48968;BME280;46511;53.148;8.204;2024-01-16T00:08:26;100371.53;;;3.22;100.00
48968;BME280;46511;53.148;8.204;2024-01-16T00:10:58;100371.16;;;3.34;100.00
48968;BME280;46511;53.148;8.204;2024-01-16T00:13:29;100372.56;;;3.18;100.00
48968;BME280;46511;53.148;8.204;2024-01-16T00:16:02;100368.88;;;3.24;100.00
48968;BME280;46511;53.148;8.204;2024-01-16T00:18:29;100361.19;;;2.91;100.00
48968;BME280;46511;53.148;8.204;2024-01-16T00:21:01;100365.72;;;2.58;100.00
48968;BME280;46511;53.148;8.204;2024-01-16T00:23:33;100360.38;;;2.89;100.00
48968;BME280;46511;53.148;8.204;2024-01-16T00:26:05;100355.84;;;3.21;100.00
48968;BME280;46511;53.148;8.204;2024-01-16T00:28:36;100379.22;;;2.74;100.00
48968;BME280;46511;53.148;8.204;2024-01-16T00:31:07;100377.22;;;2.82;100.00
48968;BME280;46511;53.148;8.204;2024-01-16T00:33:39;100374.00;;;2.44;100.00
48968;BME280;46511;53.148;8.204;2024-01-16T00:36:10;100380.56;;;2.59;100.00
48968;BME280;46511;53.148;8.204;2024-01-16T00:38:42;100378.13;;;2.23;100.00
48968;BME280;46511;53.148;8.204;2024-01-16T00:41:13;100397.53;;;2.47;100.00
48968;BME280;46511;53.148;8.204;2024-01-16T00:43:45;100404.56;;;2.45;100.00
48968;BME280;46511;53.148;8.204;2024-01-16T00:46:17;100409.19;;;2.36;100.00
48968;BME280;46511;53.148;8.204;2024-01-16T00:48:49;100399.13;;;2.51;100.00
48968;BME280;46511;53.148;8.204;2024-01-16T00:51:20;100412.63;;;2.39;100.00
48968;BME280;46511;53.148;8.204;2024-01-16T00:53:46;100410.72;;;2.13;100.00
48968;BME280;46511;53.148;8.204;2024-01-16T00:56:18;100407.00;;;1.89;100.00
48968;BME280;46511;53.148;8.204;2024-01-16T00:58:50;100410.97;;;1.73;100.00
48968;BME280;46511;53.148;8.204;2024-01-16T01:01:21;100421.34;;;2.09;100.00
48968;BME280;46511;53.148;8.204;2024-01-16T01:03:53;100418.91;;;1.68;100.00
48968;BME280;46511;53.148;8.204;2024-01-16T01:06:24;100424.66;;;1.83;100.00
48968;BME280;46511;53.148;8.204;2024-01-16T01:08:55;100423.63;;;1.88;100.00
48968;BME280;46511;53.148;8.204;2024-01-16T01:11:27;100428.72;;;1.94;100.00
48968;BME280;46511;53.148;8.204;2024-01-16T01:13:58;100427.16;;;1.87;100.00
48968;BME280;46511;53.148;8.204;2024-01-16T01:16:30;100428.16;;;1.83;100.00
48968;BME280;46511;53.148;8.204;2024-01-16T01:19:02;100425.34;;;1.89;100.00
48968;BME280;46511;53.148;8.204;2024-01-16T01:21:35;100426.16;;;1.59;100.00
48968;BME280;46511;53.148;8.204;2024-01-16T01:24:06;100417.25;;;1.66;100.00
48968;BME280;46511;53.148;8.204;2024-01-16T01:26:37;100424.91;;;1.74;100.00
48968;BME280;46511;53.148;8.204;2024-01-16T01:29:09;100429.91;;;1.83;100.00
48968;BME280;46511;53.148;8.204;2024-01-16T01:31:40;100428.09;;;1.51;100.00
48968;BME280;46511;53.148;8.204;2024-01-16T01:34:11;100437.53;;;1.58;100.00
48968;BME280;46511;53.148;8.204;2024-01-16T01:36:43;100436.19;;;1.76;100.00
48968;BME280;46511;53.148;8.204;2024-01-16T01:39:14;100437.19;;;1.70;100.00
48968;BME280;46511;53.148;8.204;2024-01-16T01:41:45;100437.19;;;1.70;100.00
48968;BME280;46511;53.148;8.204;2024-01-16T01:44:12;100430.44;;;1.63;100.00
48968;BME280;46511;53.148;8.204;2024-01-16T01:46:46;100432.97;;;1.66;100.00
48968;BME280;46511;53.148;8.204;2024-01-16T01:49:18;100425.72;;;1.76;100.00
48968;BME280;46511;53.148;8.204;2024-01-16T01:51:49;100437.25;;;1.68;100.00
48968;BME280;46511;53.148;8.204;2024-01-16T01:54:21;100440.72;;;1.35;100.00
48968;BME280;46511;53.148;8.204;2024-01-16T01:56:53;100455.19;;;1.50;100.00
48968;BME280;46511;53.148;8.204;2024-01-16T01:59:25;100443.34;;;1.35;100.00
48968;BME280;46511;53.148;8.204;2024-01-16T02:01:51;100454.81;;;1.65;100.00
48968;BME280;46511;53.148;8.204;2024-01-16T02:04:24;100454.63;;;1.73;100.00
48968;BME280;46511;53.148;8.204;2024-01-16T02:06:57;100461.00;;;1.62;100.00
48968;BME280;46511;53.148;8.204;2024-01-16T02:09:29;100465.59;;;1.53;100.00
48968;BME280;46511;53.148;8.204;2024-01-16T02:12:00;100475.44;;;1.41;100.00
48968;BME280;46511;53.148;8.204;2024-01-16T02:14:32;100468.47;;;1.76;100.00
48968;BME280;46511;53.148;8.204;2024-01-16T02:17:03;100476.06;;;1.53;100.00
48968;BME280;46511;53.148;8.204;2024-01-16T02:19:34;100470.00;;;1.15;100.00
48968;BME280;46511;53.148;8.204;2024-01-16T02:22:07;100481.44;;;1.47;100.00
48968;BME280;46511;53.148;8.204;2024-01-16T02:24:47;100477.63;;;1.24;100.00
48968;BME280;46511;53.148;8.204;2024-01-16T02:27:18;100481.09;;;1.25;100.00
48968;BME280;46511;53.148;8.204;2024-01-16T02:29:50;100494.59;;;1.43;100.00
48968;BME280;46511;53.148;8.204;2024-01-16T02:32:21;100495.91;;;1.26;100.00
48968;BME280;46511;53.148;8.204;2024-01-16T02:34:53;100501.78;;;1.35;100.00
48968;BME280;46511;53.148;8.204;2024-01-16T02:37:24;100492.50;;;1.58;100.00
48968;BME280;46511;53.148;8.204;2024-01-16T02:39:56;100507.03;;;1.71;100.00
48968;BME280;46511;53.148;8.204;2024-01-16T02:42:29;100504.47;;;1.68;100.00
48968;BME280;46511;53.148;8.204;2024-01-16T02:45:01;100507.53;;;1.50;100.00
48968;BME280;46511;53.148;8.204;2024-01-16T02:47:33;100508.53;;;1.81;100.00
48968;BME280;46511;53.148;8.204;2024-01-16T02:50:05;100506.34;;;1.63;100.00
48968;BME280;46511;53.148;8.204;2024-01-16T02:52:34;100504.44;;;1.34;100.00
48968;BME280;46511;53.148;8.204;2024-01-16T02:55:05;100499.84;;;1.42;100.00
48968;BME280;46511;53.148;8.204;2024-01-16T02:57:37;100509.63;;;1.35;100.00
48968;BME280;46511;53.148;8.204;2024-01-16T03:00:09;100508.28;;;1.55;100.00
48968;BME280;46511;53.148;8.204;2024-01-16T03:02:40;100508.94;;;1.27;100.00
48968;BME280;46511;53.148;8.204;2024-01-16T03:05:12;100504.69;;;1.22;100.00
48968;BME280;46511;53.148;8.204;2024-01-16T03:07:38;100509.34;;;1.09;100.00
48968;BME280;46511;53.148;8.204;2024-01-16T03:10:10;100506.94;;;1.38;100.00
48968;BME280;46511;53.148;8.204;2024-01-16T03:12:42;100502.72;;;1.31;100.00
48968;BME280;46511;53.148;8.204;2024-01-16T03:15:13;100511.06;;;1.10;100.00
48968;BME280;46511;53.148;8.204;2024-01-16T03:17:46;100503.72;;;1.27;100.00
48968;BME280;46511;53.148;8.204;2024-01-16T03:20:19;100497.28;;;1.40;100.00
48968;BME280;46511;53.148;8.204;2024-01-16T03:22:50;100507.25;;;1.25;100.00
48968;BME280;46511;53.148;8.204;2024-01-16T03:25:21;100507.28;;;1.23;100.00
48968;BME280;46511;53.148;8.204;2024-01-16T03:27:53;100512.28;;;1.32;100.00
48968;BME280;46511;53.148;8.204;2024-01-16T03:30:25;100510.31;;;1.43;100.00
48968;BME280;46511;53.148;8.204;2024-01-16T03:32:56;100512.75;;;1.14;100.00
48968;BME280;46511;53.148;8.204;2024-01-16T03:35:28;100510.13;;;1.14;100.00
48968;BME280;46511;53.148;8.204;2024-01-16T03:37:59;100521.13;;;1.28;100.00
48968;BME280;46511;53.148;8.204;2024-01-16T03:40:31;100514.91;;;1.34;100.00
48968;BME280;46511;53.148;8.204;2024-01-16T03:43:05;100512.22;;;1.37;100.00
48968;BME280;46511;53.148;8.204;2024-01-16T03:45:37;100516.09;;;1.56;100.00
48968;BME280;46511;53.148;8.204;2024-01-16T03:48:03;100508.81;;;1.69;100.00
48968;BME280;46511;53.148;8.204;2024-01-16T03:50:35;100509.25;;;1.51;100.00
48968;BME280;46511;53.148;8.204;2024-01-16T03:53:07;100511.09;;;1.47;100.00
48968;BME280;46511;53.148;8.204;2024-01-16T03:55:39;100504.28;;;1.40;100.00
48968;BME280;46511;53.148;8.204;2024-01-16T03:58:11;100491.44;;;1.29;100.00
48968;BME280;46511;53.148;8.204;2024-01-16T04:00:43;100510.31;;;1.42;100.00
48968;BME280;46511;53.148;8.204;2024-01-16T04:03:15;100503.84;;;1.21;100.00
48968;BME280;46511;53.148;8.204;2024-01-16T04:05:46;100513.34;;;1.25;100.00
48968;BME280;46511;53.148;8.204;2024-01-16T04:08:18;100500.66;;;1.46;100.00
48968;BME280;46511;53.148;8.204;2024-01-16T04:10:49;100499.91;;;1.40;100.00
48968;BME280;46511;53.148;8.204;2024-01-16T04:13:20;100498.41;;;1.30;100.00
48968;BME280;46511;53.148;8.204;2024-01-16T04:15:51;100495.03;;;1.25;100.00
48968;BME280;46511;53.148;8.204;2024-01-16T04:18:23;100495.72;;;1.32;100.00
48968;BME280;46511;53.148;8.204;2024-01-16T04:20:54;100491.72;;;1.17;100.00
48968;BME280;46511;53.148;8.204;2024-01-16T04:23:25;100489.72;;;1.28;100.00
48968;BME280;46511;53.148;8.204;2024-01-16T04:25:57;100489.81;;;1.25;100.00
48968;BME280;46511;53.148;8.204;2024-01-16T04:28:29;100490.91;;;1.15;100.00
48968;BME280;46511;53.148;8.204;2024-01-16T04:30:55;100498.88;;;1.09;100.00
48968;BME280;46511;53.148;8.204;2024-01-16T04:33:27;100501.34;;;1.17;100.00
48968;BME280;46511;53.148;8.204;2024-01-16T04:35:58;100495.38;;;1.10;100.00
48968;BME280;46511;53.148;8.204;2024-01-16T04:38:30;100490.56;;;0.92;100.00
48968;BME280;46511;53.148;8.204;2024-01-16T04:41:02;100485.84;;;1.07;100.00
48968;BME280;46511;53.148;8.204;2024-01-16T04:43:33;100489.72;;;0.90;100.00
48968;BME280;46511;53.148;8.204;2024-01-16T04:46:05;100477.75;;;1.18;100.00
48968;BME280;46511;53.148;8.204;2024-01-16T04:48:36;100478.03;;;1.06;100.00
48968;BME280;46511;53.148;8.204;2024-01-16T04:51:07;100477.47;;;1.30;100.00
48968;BME280;46511;53.148;8.204;2024-01-16T04:53:39;100484.63;;;1.24;100.00
48968;BME280;46511;53.148;8.204;2024-01-16T04:56:11;100483.28;;;1.43;100.00
48968;BME280;46511;53.148;8.204;2024-01-16T04:58:43;100488.78;;;1.31;100.00
48968;BME280;46511;53.148;8.204;2024-01-16T05:01:14;100496.25;;;1.48;100.00
48968;BME280;46511;53.148;8.204;2024-01-16T05:03:45;100496.16;;;1.15;100.00
48968;BME280;46511;53.148;8.204;2024-01-16T05:06:16;100497.19;;;1.45;100.00
48968;BME280;46511;53.148;8.204;2024-01-16T05:08:48;100495.31;;;1.50;100.00
48968;BME280;46511;53.148;8.204;2024-01-16T05:11:19;100493.22;;;1.64;100.00
48968;BME280;46511;53.148;8.204;2024-01-16T05:13:51;100492.06;;;1.76;100.00
48968;BME280;46511;53.148;8.204;2024-01-16T05:16:28;100496.31;;;1.45;100.00
48968;BME280;46511;53.148;8.204;2024-01-16T05:18:59;100494.22;;;1.59;100.00
48968;BME280;46511;53.148;8.204;2024-01-16T05:21:30;100502.13;;;1.57;100.00
48968;BME280;46511;53.148;8.204;2024-01-16T05:24:02;100505.09;;;1.42;100.00
48968;BME280;46511;53.148;8.204;2024-01-16T05:26:33;100512.78;;;1.50;100.00
48968;BME280;46511;53.148;8.204;2024-01-16T05:29:04;100513.63;;;1.52;100.00
48968;BME280;46511;53.148;8.204;2024-01-16T05:31:39;100511.91;;;2.19;100.00
48968;BME280;46511;53.148;8.204;2024-01-16T05:34:07;100499.28;;;2.00;100.00
48968;BME280;46511;53.148;8.204;2024-01-16T05:36:39;100508.13;;;1.61;100.00
48968;BME280;46511;53.148;8.204;2024-01-16T05:39:12;100494.34;;;1.90;100.00
48968;BME280;46511;53.148;8.204;2024-01-16T05:41:43;100499.00;;;1.77;100.00
48968;BME280;46511;53.148;8.204;2024-01-16T05:44:15;100489.00;;;1.93;100.00
48968;BME280;46511;53.148;8.204;2024-01-16T05:46:46;100490.00;;;1.87;100.00
48968;BME280;46511;53.148;8.204;2024-01-16T05:49:18;100503.50;;;1.36;100.00
48968;BME280;46511;53.148;8.204;2024-01-16T05:51:49;100506.13;;;1.72;100.00
48968;BME280;46511;53.148;8.204;2024-01-16T05:54:20;100497.81;;;1.89;100.00
48968;BME280;46511;53.148;8.204;2024-01-16T05:56:52;100518.31;;;1.73;100.00
48968;BME280;46511;53.148;8.204;2024-01-16T05:59:23;100511.41;;;2.05;100.00
48968;BME280;46511;53.148;8.204;2024-01-16T06:01:54;100511.66;;;2.28;100.00
48968;BME280;46511;53.148;8.204;2024-01-16T06:04:26;100513.44;;;2.26;100.00
48968;BME280;46511;53.148;8.204;2024-01-16T06:06:57;100511.31;;;2.08;100.00
48968;BME280;46511;53.148;8.204;2024-01-16T06:09:29;100509.44;;;2.13;100.00
48968;BME280;46511;53.148;8.204;2024-01-16T06:12:00;100501.34;;;2.22;100.00
48968;BME280;46511;53.148;8.204;2024-01-16T06:14:31;100501.66;;;1.76;100.00
48968;BME280;46511;53.148;8.204;2024-01-16T06:17:03;100500.00;;;2.06;100.00
48968;BME280;46511;53.148;8.204;2024-01-16T06:19:36;100490.41;;;1.72;100.00
48968;BME280;46511;53.148;8.204;2024-01-16T06:22:07;100493.00;;;1.74;100.00
48968;BME280;46511;53.148;8.204;2024-01-16T06:24:39;100491.47;;;1.65;100.00
48968;BME280;46511;53.148;8.204;2024-01-16T06:27:11;100498.69;;;1.89;100.00
48968;BME280;46511;53.148;8.204;2024-01-16T06:29:49;100497.44;;;1.70;100.00
48968;BME280;46511;53.148;8.204;2024-01-16T06:32:22;100499.09;;;1.74;100.00
48968;BME280;46511;53.148;8.204;2024-01-16T06:34:53;100501.72;;;1.74;100.00
48968;BME280;46511;53.148;8.204;2024-01-16T06:37:24;100495.72;;;1.69;100.00
48968;BME280;46511;53.148;8.204;2024-01-16T06:39:56;100491.16;;;1.41;100.00
48968;BME280;46511;53.148;8.204;2024-01-16T06:42:27;100489.16;;;1.53;100.00
48968;BME280;46511;53.148;8.204;2024-01-16T06:44:58;100488.16;;;1.57;100.00
48968;BME280;46511;53.148;8.204;2024-01-16T06:47:30;100490.53;;;1.67;100.00
48968;BME280;46511;53.148;8.204;2024-01-16T06:49:56;100488.69;;;1.71;100.00
48968;BME280;46511;53.148;8.204;2024-01-16T06:52:28;100492.41;;;1.61;100.00
48968;BME280;46511;53.148;8.204;2024-01-16T06:54:59;100496.56;;;1.71;100.00
48968;BME280;46511;53.148;8.204;2024-01-16T06:57:25;100502.19;;;1.88;100.00
48968;BME280;46511;53.148;8.204;2024-01-16T06:59:58;100507.31;;;1.59;100.00
48968;BME280;46511;53.148;8.204;2024-01-16T07:02:29;100502.94;;;1.59;100.00
48968;BME280;46511;53.148;8.204;2024-01-16T07:05:01;100501.81;;;2.04;100.00
48968;BME280;46511;53.148;8.204;2024-01-16T07:07:32;100500.81;;;1.75;100.00
48968;BME280;46511;53.148;8.204;2024-01-16T07:10:03;100502.84;;;1.64;100.00
48968;BME280;46511;53.148;8.204;2024-01-16T07:12:39;100514.88;;;1.71;100.00
48968;BME280;46511;53.148;8.204;2024-01-16T07:15:11;100519.72;;;1.86;100.00
48968;BME280;46511;53.148;8.204;2024-01-16T07:17:42;100516.22;;;1.52;100.00
48968;BME280;46511;53.148;8.204;2024-01-16T07:20:14;100517.69;;;1.97;100.00
48968;BME280;46511;53.148;8.204;2024-01-16T07:22:40;100523.63;;;2.04;100.00
48968;BME280;46511;53.148;8.204;2024-01-16T07:25:12;100525.50;;;2.00;100.00
48968;BME280;46511;53.148;8.204;2024-01-16T07:27:43;100526.63;;;1.90;100.00
48968;BME280;46511;53.148;8.204;2024-01-16T07:30:17;100524.50;;;2.05;100.00
48968;BME280;46511;53.148;8.204;2024-01-16T07:32:48;100523.00;;;1.94;100.00
48968;BME280;46511;53.148;8.204;2024-01-16T07:35:21;100522.25;;;1.89;100.00
48968;BME280;46511;53.148;8.204;2024-01-16T07:37:52;100530.50;;;1.74;100.00
48968;BME280;46511;53.148;8.204;2024-01-16T07:40:25;100519.50;;;1.95;100.00
48968;BME280;46511;53.148;8.204;2024-01-16T07:42:51;100531.78;;;1.93;100.00
48968;BME280;46511;53.148;8.204;2024-01-16T07:45:23;100533.50;;;1.94;100.00
48968;BME280;46511;53.148;8.204;2024-01-16T07:47:50;100527.44;;;1.92;100.00
48968;BME280;46511;53.148;8.204;2024-01-16T07:50:21;100534.72;;;1.80;100.00
48968;BME280;46511;53.148;8.204;2024-01-16T07:52:53;100532.81;;;1.86;100.00
48968;BME280;46511;53.148;8.204;2024-01-16T07:55:19;100543.19;;;1.91;100.00
48968;BME280;46511;53.148;8.204;2024-01-16T07:57:50;100539.34;;;2.04;100.00
48968;BME280;46511;53.148;8.204;2024-01-16T08:00:22;100536.47;;;2.15;100.00
48968;BME280;46511;53.148;8.204;2024-01-16T08:02:53;100542.81;;;2.39;100.00
48968;BME280;46511;53.148;8.204;2024-01-16T08:05:24;100542.25;;;1.93;100.00
48968;BME280;46511;53.148;8.204;2024-01-16T08:07:57;100546.13;;;2.13;100.00
48968;BME280;46511;53.148;8.204;2024-01-16T08:10:28;100545.31;;;2.11;100.00
48968;BME280;46511;53.148;8.204;2024-01-16T08:13:00;100546.78;;;2.21;100.00
48968;BME280;46511;53.148;8.204;2024-01-16T08:15:31;100542.06;;;2.34;100.00
48968;BME280;46511;53.148;8.204;2024-01-16T08:18:03;100548.72;;;2.47;100.00
48968;BME280;46511;53.148;8.204;2024-01-16T08:20:35;100541.59;;;2.18;100.00
48968;BME280;46511;53.148;8.204;2024-01-16T08:23:06;100540.97;;;2.42;100.00
48968;BME280;46511;53.148;8.204;2024-01-16T08:25:38;100542.69;;;2.43;100.00
48968;BME280;46511;53.148;8.204;2024-01-16T08:28:09;100544.75;;;2.63;100.00
48968;BME280;46511;53.148;8.204;2024-01-16T08:30:41;100546.00;;;2.81;100.00
48968;BME280;46511;53.148;8.204;2024-01-16T08:33:12;100549.88;;;2.35;100.00
48968;BME280;46511;53.148;8.204;2024-01-16T08:35:44;100544.84;;;2.91;100.00
48968;BME280;46511;53.148;8.204;2024-01-16T08:38:15;100552.97;;;2.82;100.00
48968;BME280;46511;53.148;8.204;2024-01-16T08:40:46;100548.81;;;3.34;100.00
48968;BME280;46511;53.148;8.204;2024-01-16T08:43:18;100552.94;;;3.13;100.00
48968;BME280;46511;53.148;8.204;2024-01-16T08:45:49;100555.84;;;2.73;100.00
48968;BME280;46511;53.148;8.204;2024-01-16T08:48:16;100553.34;;;2.99;100.00
48968;BME280;46511;53.148;8.204;2024-01-16T08:50:47;100565.66;;;2.97;100.00
48968;BME280;46511;53.148;8.204;2024-01-16T08:53:14;100559.94;;;3.12;100.00
48968;BME280;46511;53.148;8.204;2024-01-16T08:55:45;100565.91;;;2.88;100.00
48968;BME280;46511;53.148;8.204;2024-01-16T08:58:11;100562.06;;;2.70;100.00
48968;BME280;46511;53.148;8.204;2024-01-16T09:00:43;100572.53;;;3.01;100.00
48968;BME280;46511;53.148;8.204;2024-01-16T09:03:14;100574.00;;;2.80;100.00
48968;BME280;46511;53.148;8.204;2024-01-16T09:05:45;100569.88;;;3.31;100.00
48968;BME280;46511;53.148;8.204;2024-01-16T09:08:16;100575.94;;;3.34;100.00
48968;BME280;46511;53.148;8.204;2024-01-16T09:10:48;100575.63;;;3.15;100.00
48968;BME280;46511;53.148;8.204;2024-01-16T09:13:14;100576.75;;;3.64;100.00
48968;BME280;46511;53.148;8.204;2024-01-16T09:15:49;100578.31;;;3.42;100.00
48968;BME280;46511;53.148;8.204;2024-01-16T09:18:20;100572.25;;;2.81;100.00
48968;BME280;46511;53.148;8.204;2024-01-16T09:20:52;100573.38;;;3.02;100.00
48968;BME280;46511;53.148;8.204;2024-01-16T09:23:23;100568.56;;;3.46;100.00
48968;BME280;46511;53.148;8.204;2024-01-16T09:25:55;100576.22;;;3.53;100.00
48968;BME280;46511;53.148;8.204;2024-01-16T09:28:26;100582.34;;;3.54;100.00
48968;BME280;46511;53.148;8.204;2024-01-16T09:30:59;100578.16;;;3.19;100.00
48968;BME280;46511;53.148;8.204;2024-01-16T09:33:31;100577.47;;;4.22;100.00
48968;BME280;46511;53.148;8.204;2024-01-16T09:36:02;100575.25;;;3.84;100.00
48968;BME280;46511;53.148;8.204;2024-01-16T09:38:34;100577.75;;;3.87;100.00
48968;BME280;46511;53.148;8.204;2024-01-16T09:41:05;100580.59;;;3.81;100.00
48968;BME280;46511;53.148;8.204;2024-01-16T09:43:36;100585.31;;;4.49;100.00
48968;BME280;46511;53.148;8.204;2024-01-16T09:46:08;100592.06;;;4.31;100.00
48968;BME280;46511;53.148;8.204;2024-01-16T09:48:36;100585.84;;;4.34;100.00
48968;BME280;46511;53.148;8.204;2024-01-16T09:51:08;100588.66;;;4.29;100.00
48968;BME280;46511;53.148;8.204;2024-01-16T09:53:40;100587.16;;;5.19;100.00
48968;BME280;46511;53.148;8.204;2024-01-16T09:56:16;100576.47;;;6.33;100.00
48968;BME280;46511;53.148;8.204;2024-01-16T09:58:54;100573.91;;;7.30;100.00
48968;BME280;46511;53.148;8.204;2024-01-16T10:01:31;100582.59;;;6.13;100.00
48968;BME280;46511;53.148;8.204;2024-01-16T10:03:59;100571.72;;;7.00;100.00
48968;BME280;46511;53.148;8.204;2024-01-16T10:06:31;100575.44;;;5.94;100.00
48968;BME280;46511;53.148;8.204;2024-01-16T10:09:04;100576.75;;;6.67;100.00
48968;BME280;46511;53.148;8.204;2024-01-16T10:11:37;100579.81;;;6.16;100.00
48968;BME280;46511;53.148;8.204;2024-01-16T10:14:09;100575.19;;;5.10;100.00
48968;BME280;46511;53.148;8.204;2024-01-16T10:19:48;100572.34;;;6.05;100.00
48968;BME280;46511;53.148;8.204;2024-01-16T10:22:21;100576.69;;;5.17;100.00
48968;BME280;46511;53.148;8.204;2024-01-16T10:25:29;100565.41;;;5.37;100.00
48968;BME280;46511;53.148;8.204;2024-01-16T10:28:03;100559.13;;;5.18;100.00
48968;BME280;46511;53.148;8.204;2024-01-16T10:30:36;100569.25;;;4.81;100.00
48968;BME280;46511;53.148;8.204;2024-01-16T10:33:13;100576.41;;;4.53;100.00
48968;BME280;46511;53.148;8.204;2024-01-16T10:35:45;100572.78;;;5.51;100.00
48968;BME280;46511;53.148;8.204;2024-01-16T10:38:20;100577.91;;;5.08;100.00
48968;BME280;46511;53.148;8.204;2024-01-16T10:41:04;100570.63;;;5.15;100.00
48968;BME280;46511;53.148;8.204;2024-01-16T10:43:46;100567.94;;;5.84;100.00
48968;BME280;46511;53.148;8.204;2024-01-16T10:46:17;100576.03;;;4.64;100.00
48968;BME280;46511;53.148;8.204;2024-01-16T10:48:58;100576.66;;;4.95;100.00
48968;BME280;46511;53.148;8.204;2024-01-16T10:51:31;100578.72;;;4.37;100.00
48968;BME280;46511;53.148;8.204;2024-01-16T10:53:59;100578.22;;;4.51;100.00
48968;BME280;46511;53.148;8.204;2024-01-16T10:56:32;100589.63;;;4.26;100.00
48968;BME280;46511;53.148;8.204;2024-01-16T10:59:11;100577.34;;;4.25;100.00
48968;BME280;46511;53.148;8.204;2024-01-16T11:01:49;100588.88;;;3.95;100.00
48968;BME280;46511;53.148;8.204;2024-01-16T11:04:25;100587.69;;;4.05;100.00
48968;BME280;46511;53.148;8.204;2024-01-16T11:06:58;100586.25;;;4.21;100.00
48968;BME280;46511;53.148;8.204;2024-01-16T11:09:34;100566.56;;;3.82;100.00
48968;BME280;46511;53.148;8.204;2024-01-16T11:12:06;100569.75;;;4.18;100.00
48968;BME280;46511;53.148;8.204;2024-01-16T11:14:39;100575.50;;;4.03;100.00
48968;BME280;46511;53.148;8.204;2024-01-16T11:17:11;100580.47;;;4.12;100.00
48968;BME280;46511;53.148;8.204;2024-01-16T11:19:48;100570.59;;;4.43;100.00
48968;BME280;46511;53.148;8.204;2024-01-16T11:22:21;100572.97;;;4.51;100.00
48968;BME280;46511;53.148;8.204;2024-01-16T11:25:12;100562.13;;;4.60;100.00
48968;BME280;46511;53.148;8.204;2024-01-16T11:27:47;100562.44;;;4.26;100.00
48968;BME280;46511;53.148;8.204;2024-01-16T11:30:30;100569.34;;;4.55;100.00
48968;BME280;46511;53.148;8.204;2024-01-16T11:33:04;100571.56;;;4.41;100.00
48968;BME280;46511;53.148;8.204;2024-01-16T11:35:36;100570.34;;;4.51;100.00
48968;BME280;46511;53.148;8.204;2024-01-16T11:38:16;100577.72;;;4.90;100.00
48968;BME280;46511;53.148;8.204;2024-01-16T11:40:48;100579.31;;;4.70;100.00
48968;BME280;46511;53.148;8.204;2024-01-16T11:46:06;100575.25;;;4.37;100.00
48968;BME280;46511;53.148;8.204;2024-01-16T11:48:33;100569.69;;;4.69;100.00
48968;BME280;46511;53.148;8.204;2024-01-16T11:51:24;100567.25;;;4.65;100.00
48968;BME280;46511;53.148;8.204;2024-01-16T11:53:56;100572.53;;;4.63;100.00
48968;BME280;46511;53.148;8.204;2024-01-16T11:56:34;100569.34;;;4.55;100.00
48968;BME280;46511;53.148;8.204;2024-01-16T11:59:17;100568.38;;;4.57;100.00
48968;BME280;46511;53.148;8.204;2024-01-16T12:02:05;100571.66;;;4.13;100.00
48968;BME280;46511;53.148;8.204;2024-01-16T12:04:45;100564.88;;;4.06;100.00
48968;BME280;46511;53.148;8.204;2024-01-16T12:07:24;100571.78;;;4.35;100.00
48968;BME280;46511;53.148;8.204;2024-01-16T12:09:59;100569.09;;;4.11;100.00
48968;BME280;46511;53.148;8.204;2024-01-16T12:12:32;100564.88;;;4.32;100.00
48968;BME280;46511;53.148;8.204;2024-01-16T12:14:59;100552.34;;;4.64;100.00
48968;BME280;46511;53.148;8.204;2024-01-16T12:17:30;100552.94;;;4.22;100.00
48968;BME280;46511;53.148;8.204;2024-01-16T12:19:56;100559.22;;;4.18;100.00
48968;BME280;46511;53.148;8.204;2024-01-16T12:22:27;100552.03;;;4.48;100.00
48968;BME280;46511;53.148;8.204;2024-01-16T12:24:59;100554.66;;;3.98;100.00
48968;BME280;46511;53.148;8.204;2024-01-16T12:27:35;100548.28;;;4.30;100.00
48968;BME280;46511;53.148;8.204;2024-01-16T12:30:09;100547.38;;;4.56;100.00
48968;BME280;46511;53.148;8.204;2024-01-16T12:32:41;100538.97;;;4.46;100.00
48968;BME280;46511;53.148;8.204;2024-01-16T12:35:13;100545.41;;;4.38;100.00
48968;BME280;46511;53.148;8.204;2024-01-16T12:37:57;100537.91;;;4.50;100.00
48968;BME280;46511;53.148;8.204;2024-01-16T12:40:29;100538.66;;;4.04;100.00
48968;BME280;46511;53.148;8.204;2024-01-16T12:43:01;100536.81;;;4.08;100.00
48968;BME280;46511;53.148;8.204;2024-01-16T12:45:33;100536.25;;;4.48;100.00
48968;BME280;46511;53.148;8.204;2024-01-16T12:48:05;100524.50;;;4.08;100.00
48968;BME280;46511;53.148;8.204;2024-01-16T12:50:31;100526.50;;;4.26;100.00
48968;BME280;46511;53.148;8.204;2024-01-16T12:53:10;100527.34;;;4.02;100.00
48968;BME280;46511;53.148;8.204;2024-01-16T12:55:42;100523.47;;;4.12;100.00
48968;BME280;46511;53.148;8.204;2024-01-16T12:58:14;100531.63;;;4.54;100.00
48968;BME280;46511;53.148;8.204;2024-01-16T13:00:47;100518.09;;;4.15;100.00
48968;BME280;46511;53.148;8.204;2024-01-16T13:03:21;100522.75;;;4.07;100.00
48968;BME280;46511;53.148;8.204;2024-01-16T13:06:00;100522.00;;;4.55;100.00
48968;BME280;46511;53.148;8.204;2024-01-16T13:08:32;100516.94;;;4.49;100.00
48968;BME280;46511;53.148;8.204;2024-01-16T13:11:04;100524.56;;;4.32;100.00
48968;BME280;46511;53.148;8.204;2024-01-16T13:13:36;100523.41;;;3.89;100.00
48968;BME280;46511;53.148;8.204;2024-01-16T13:16:08;100510.78;;;4.00;100.00
48968;BME280;46511;53.148;8.204;2024-01-16T13:18:34;100507.22;;;4.01;100.00
48968;BME280;46511;53.148;8.204;2024-01-16T13:21:06;100516.34;;;4.41;100.00